sensor_id;sensor_type;location;lat;lon;timestamp;temperature;humidity
64062;DHT22;50308;47.438;-1.528;2024-03-02T00:00:06;10.40;99.90
64062;DHT22;50308;47.438;-1.528;2024-03-02T00:02:43;10.50;99.90
64062;DHT22;50308;47.438;-1.528;2024-03-02T00:05:20;10.50;99.90
64062;DHT22;50308;47.438;-1.528;2024-03-02T00:07:52;10.50;99.90
64062;DHT22;50308;47.438;-1.528;2024-03-02T00:10:21;10.50;99.90
64062;DHT22;50308;47.438;-1.528;2024-03-02T00:12:51;10.50;99.90
64062;DHT22;50308;47.438;-1.528;2024-03-02T00:15:46;10.50;99.90
64062;DHT22;50308;47.438;-1.528;2024-03-02T00:18:14;10.50;99.90
64062;DHT22;50308;47.438;-1.528;2024-03-02T00:20:42;10.50;99.90
64062;DHT22;50308;47.438;-1.528;2024-03-02T00:23:09;10.50;99.90
64062;DHT22;50308;47.438;-1.528;2024-03-02T00:25:48;10.50;99.90
64062;DHT22;50308;47.438;-1.528;2024-03-02T00:28:34;10.50;99.90
64062;DHT22;50308;47.438;-1.528;2024-03-02T00:31:11;10.50;99.90
64062;DHT22;50308;47.438;-1.528;2024-03-02T00:33:47;10.40;99.90
64062;DHT22;50308;47.438;-1.528;2024-03-02T00:36:15;10.40;99.90
64062;DHT22;50308;47.438;-1.528;2024-03-02T00:38:48;10.40;99.90
64062;DHT22;50308;47.438;-1.528;2024-03-02T00:41:31;10.50;99.90
64062;DHT22;50308;47.438;-1.528;2024-03-02T00:43:57;10.50;99.90
64062;DHT22;50308;47.438;-1.528;2024-03-02T00:46:24;10.50;99.90
64062;DHT22;50308;47.438;-1.528;2024-03-02T00:51:20;10.50;99.90
64062;DHT22;50308;47.438;-1.528;2024-03-02T00:53:47;10.50;99.90
64062;DHT22;50308;47.438;-1.528;2024-03-02T00:56:13;10.50;99.90
64062;DHT22;50308;47.438;-1.528;2024-03-02T00:58:39;10.50;99.90
64062;DHT22;50308;47.438;-1.528;2024-03-02T01:01:05;10.50;99.90
64062;DHT22;50308;47.438;-1.528;2024-03-02T01:03:32;10.50;99.90
64062;DHT22;50308;47.438;-1.528;2024-03-02T01:05:58;10.60;99.90
64062;DHT22;50308;47.438;-1.528;2024-03-02T01:08:24;10.50;99.90
64062;DHT22;50308;47.438;-1.528;2024-03-02T01:10:51;10.50;99.90
64062;DHT22;50308;47.438;-1.528;2024-03-02T01:13:17;10.60;99.90
64062;DHT22;50308;47.438;-1.528;2024-03-02T01:15:42;10.60;99.90
64062;DHT22;50308;47.438;-1.528;2024-03-02T01:18:09;10.50;99.90
64062;DHT22;50308;47.438;-1.528;2024-03-02T01:20:34;10.50;99.90
64062;DHT22;50308;47.438;-1.528;2024-03-02T01:23:00;10.50;99.90
64062;DHT22;50308;47.438;-1.528;2024-03-02T01:25:26;10.50;99.90
64062;DHT22;50308;47.438;-1.528;2024-03-02T01:27:51;10.50;99.90
64062;DHT22;50308;47.438;-1.528;2024-03-02T01:30:17;10.50;99.90
64062;DHT22;50308;47.438;-1.528;2024-03-02T01:32:43;10.50;99.90
64062;DHT22;50308;47.438;-1.528;2024-03-02T01:35:08;10.50;99.90
64062;DHT22;50308;47.438;-1.528;2024-03-02T01:37:34;10.50;99.90
64062;DHT22;50308;47.438;-1.528;2024-03-02T01:40:00;10.50;99.90
64062;DHT22;50308;47.438;-1.528;2024-03-02T01:42:26;10.50;99.90
64062;DHT22;50308;47.438;-1.528;2024-03-02T01:44:51;10.50;99.90
64062;DHT22;50308;47.438;-1.528;2024-03-02T01:47:17;10.60;99.90
64062;DHT22;50308;47.438;-1.528;2024-03-02T01:49:43;10.60;99.90
64062;DHT22;50308;47.438;-1.528;2024-03-02T01:52:09;10.50;99.90
64062;DHT22;50308;47.438;-1.528;2024-03-02T01:54:34;10.60;99.90
64062;DHT22;50308;47.438;-1.528;2024-03-02T01:57:00;10.60;99.90
64062;DHT22;50308;47.438;-1.528;2024-03-02T01:59:26;10.60;99.90
64062;DHT22;50308;47.438;-1.528;2024-03-02T02:01:52;10.60;99.90
64062;DHT22;50308;47.438;-1.528;2024-03-02T02:04:18;10.60;99.90
64062;DHT22;50308;47.438;-1.528;2024-03-02T02:06:47;10.60;99.90
64062;DHT22;50308;47.438;-1.528;2024-03-02T02:09:12;10.50;99.90
64062;DHT22;50308;47.438;-1.528;2024-03-02T02:11:38;10.50;99.90
64062;DHT22;50308;47.438;-1.528;2024-03-02T02:14:04;10.50;99.90
64062;DHT22;50308;47.438;-1.528;2024-03-02T02:16:31;10.50;99.90
64062;DHT22;50308;47.438;-1.528;2024-03-02T02:18:57;10.50;99.90
64062;DHT22;50308;47.438;-1.528;2024-03-02T02:21:23;10.50;99.90
64062;DHT22;50308;47.438;-1.528;2024-03-02T02:23:48;10.50;99.90
64062;DHT22;50308;47.438;-1.528;2024-03-02T02:26:15;10.50;99.90
64062;DHT22;50308;47.438;-1.528;2024-03-02T02:28:41;10.50;99.90
64062;DHT22;50308;47.438;-1.528;2024-03-02T02:31:12;10.60;99.90
64062;DHT22;50308;47.438;-1.528;2024-03-02T02:33:39;10.60;99.90
64062;DHT22;50308;47.438;-1.528;2024-03-02T02:36:05;10.60;99.90
64062;DHT22;50308;47.438;-1.528;2024-03-02T02:38:33;10.60;99.90
64062;DHT22;50308;47.438;-1.528;2024-03-02T02:41:00;10.60;99.90
64062;DHT22;50308;47.438;-1.528;2024-03-02T02:43:26;10.60;99.90
64062;DHT22;50308;47.438;-1.528;2024-03-02T02:45:51;10.60;99.90
64062;DHT22;50308;47.438;-1.528;2024-03-02T02:48:17;10.60;99.90
64062;DHT22;50308;47.438;-1.528;2024-03-02T02:50:43;10.60;99.90
64062;DHT22;50308;47.438;-1.528;2024-03-02T02:53:08;10.60;99.90
64062;DHT22;50308;47.438;-1.528;2024-03-02T02:55:35;10.60;99.90
64062;DHT22;50308;47.438;-1.528;2024-03-02T02:58:06;10.60;99.90
64062;DHT22;50308;47.438;-1.528;2024-03-02T03:00:32;10.60;99.90
64062;DHT22;50308;47.438;-1.528;2024-03-02T03:02:58;10.60;99.90
64062;DHT22;50308;47.438;-1.528;2024-03-02T03:05:23;10.60;99.90
64062;DHT22;50308;47.438;-1.528;2024-03-02T03:07:49;10.60;99.90
64062;DHT22;50308;47.438;-1.528;2024-03-02T03:10:17;10.60;99.90
64062;DHT22;50308;47.438;-1.528;2024-03-02T03:12:43;10.60;99.90
64062;DHT22;50308;47.438;-1.528;2024-03-02T03:15:09;10.60;99.90
64062;DHT22;50308;47.438;-1.528;2024-03-02T03:17:35;10.50;99.90
64062;DHT22;50308;47.438;-1.528;2024-03-02T03:20:02;10.60;99.90
64062;DHT22;50308;47.438;-1.528;2024-03-02T03:22:30;10.60;99.90
64062;DHT22;50308;47.438;-1.528;2024-03-02T03:24:57;10.50;99.90
64062;DHT22;50308;47.438;-1.528;2024-03-02T03:27:22;10.50;99.90
64062;DHT22;50308;47.438;-1.528;2024-03-02T03:29:48;10.50;99.90
64062;DHT22;50308;47.438;-1.528;2024-03-02T03:32:13;10.60;99.90
64062;DHT22;50308;47.438;-1.528;2024-03-02T03:34:39;10.60;99.90
64062;DHT22;50308;47.438;-1.528;2024-03-02T03:37:05;10.60;99.90
64062;DHT22;50308;47.438;-1.528;2024-03-02T03:39:31;10.50;99.90
64062;DHT22;50308;47.438;-1.528;2024-03-02T03:41:57;10.50;99.90
64062;DHT22;50308;47.438;-1.528;2024-03-02T03:44:22;10.50;99.90
64062;DHT22;50308;47.438;-1.528;2024-03-02T03:46:48;10.50;99.90
64062;DHT22;50308;47.438;-1.528;2024-03-02T03:49:14;10.40;99.90
64062;DHT22;50308;47.438;-1.528;2024-03-02T03:51:39;10.40;99.90
64062;DHT22;50308;47.438;-1.528;2024-03-02T03:54:05;10.40;99.90
64062;DHT22;50308;47.438;-1.528;2024-03-02T03:56:31;10.40;99.90
64062;DHT22;50308;47.438;-1.528;2024-03-02T03:58:56;10.50;99.90
64062;DHT22;50308;47.438;-1.528;2024-03-02T04:01:22;10.40;99.90
64062;DHT22;50308;47.438;-1.528;2024-03-02T04:03:48;10.40;99.90
64062;DHT22;50308;47.438;-1.528;2024-03-02T04:06:14;10.40;99.90
64062;DHT22;50308;47.438;-1.528;2024-03-02T04:08:41;10.50;99.90
64062;DHT22;50308;47.438;-1.528;2024-03-02T04:11:07;10.50;99.90
64062;DHT22;50308;47.438;-1.528;2024-03-02T04:13:33;10.50;99.90
64062;DHT22;50308;47.438;-1.528;2024-03-02T04:15:58;10.50;99.90
64062;DHT22;50308;47.438;-1.528;2024-03-02T04:18:24;10.50;99.90
64062;DHT22;50308;47.438;-1.528;2024-03-02T04:20:50;10.50;99.90
64062;DHT22;50308;47.438;-1.528;2024-03-02T04:23:15;10.50;99.90
64062;DHT22;50308;47.438;-1.528;2024-03-02T04:25:41;10.50;99.90
64062;DHT22;50308;47.438;-1.528;2024-03-02T04:28:07;10.50;99.90
64062;DHT22;50308;47.438;-1.528;2024-03-02T04:30:32;10.50;99.90
64062;DHT22;50308;47.438;-1.528;2024-03-02T04:32:58;10.50;99.90
64062;DHT22;50308;47.438;-1.528;2024-03-02T04:35:24;10.50;99.90
64062;DHT22;50308;47.438;-1.528;2024-03-02T04:37:50;10.50;99.90
64062;DHT22;50308;47.438;-1.528;2024-03-02T04:40:16;10.40;99.90
64062;DHT22;50308;47.438;-1.528;2024-03-02T04:42:42;10.40;99.90
64062;DHT22;50308;47.438;-1.528;2024-03-02T04:45:08;10.50;99.90
64062;DHT22;50308;47.438;-1.528;2024-03-02T04:47:34;10.50;99.90
64062;DHT22;50308;47.438;-1.528;2024-03-02T04:50:00;10.50;99.90
64062;DHT22;50308;47.438;-1.528;2024-03-02T04:52:25;10.50;99.90
64062;DHT22;50308;47.438;-1.528;2024-03-02T04:54:51;10.50;99.90
64062;DHT22;50308;47.438;-1.528;2024-03-02T04:57:35;10.60;99.90
64062;DHT22;50308;47.438;-1.528;2024-03-02T05:00:01;10.50;99.90
64062;DHT22;50308;47.438;-1.528;2024-03-02T05:02:27;10.60;99.90
64062;DHT22;50308;47.438;-1.528;2024-03-02T05:04:52;10.60;99.90
64062;DHT22;50308;47.438;-1.528;2024-03-02T05:07:18;10.50;99.90
64062;DHT22;50308;47.438;-1.528;2024-03-02T05:09:44;10.50;99.90
64062;DHT22;50308;47.438;-1.528;2024-03-02T05:12:10;10.50;99.90
64062;DHT22;50308;47.438;-1.528;2024-03-02T05:14:55;10.50;99.90
64062;DHT22;50308;47.438;-1.528;2024-03-02T05:17:21;10.50;99.90
64062;DHT22;50308;47.438;-1.528;2024-03-02T05:19:47;10.50;99.90
64062;DHT22;50308;47.438;-1.528;2024-03-02T05:22:12;10.50;99.90
64062;DHT22;50308;47.438;-1.528;2024-03-02T05:24:38;10.50;99.90
64062;DHT22;50308;47.438;-1.528;2024-03-02T05:27:03;10.50;99.90
64062;DHT22;50308;47.438;-1.528;2024-03-02T05:29:30;10.50;99.90
64062;DHT22;50308;47.438;-1.528;2024-03-02T05:31:55;10.50;99.90
64062;DHT22;50308;47.438;-1.528;2024-03-02T05:34:21;10.40;99.90
64062;DHT22;50308;47.438;-1.528;2024-03-02T05:36:46;10.40;99.90
64062;DHT22;50308;47.438;-1.528;2024-03-02T05:39:12;10.40;99.90
64062;DHT22;50308;47.438;-1.528;2024-03-02T05:41:38;10.40;99.90
64062;DHT22;50308;47.438;-1.528;2024-03-02T05:44:04;10.40;99.90
64062;DHT22;50308;47.438;-1.528;2024-03-02T05:46:29;10.40;99.90
64062;DHT22;50308;47.438;-1.528;2024-03-02T05:48:55;10.40;99.90
64062;DHT22;50308;47.438;-1.528;2024-03-02T05:51:21;10.40;99.90
64062;DHT22;50308;47.438;-1.528;2024-03-02T05:53:46;10.30;99.90
64062;DHT22;50308;47.438;-1.528;2024-03-02T05:56:12;10.30;99.90
64062;DHT22;50308;47.438;-1.528;2024-03-02T05:58:38;10.30;99.90
64062;DHT22;50308;47.438;-1.528;2024-03-02T06:01:22;10.30;99.90
64062;DHT22;50308;47.438;-1.528;2024-03-02T06:03:56;10.20;99.90
64062;DHT22;50308;47.438;-1.528;2024-03-02T06:06:23;10.20;99.90
64062;DHT22;50308;47.438;-1.528;2024-03-02T06:08:48;10.20;99.90
64062;DHT22;50308;47.438;-1.528;2024-03-02T06:11:14;10.20;99.90
64062;DHT22;50308;47.438;-1.528;2024-03-02T06:13:40;10.20;99.90
64062;DHT22;50308;47.438;-1.528;2024-03-02T06:16:05;10.20;99.90
64062;DHT22;50308;47.438;-1.528;2024-03-02T06:18:31;10.10;99.90
64062;DHT22;50308;47.438;-1.528;2024-03-02T06:20:57;10.10;99.90
64062;DHT22;50308;47.438;-1.528;2024-03-02T06:23:23;10.10;99.90
64062;DHT22;50308;47.438;-1.528;2024-03-02T06:25:48;10.10;99.90
64062;DHT22;50308;47.438;-1.528;2024-03-02T06:28:14;10.10;99.90
64062;DHT22;50308;47.438;-1.528;2024-03-02T06:30:42;10.00;99.90
64062;DHT22;50308;47.438;-1.528;2024-03-02T06:33:09;10.00;99.90
64062;DHT22;50308;47.438;-1.528;2024-03-02T06:35:35;10.00;99.90
64062;DHT22;50308;47.438;-1.528;2024-03-02T06:38:01;10.10;99.90
64062;DHT22;50308;47.438;-1.528;2024-03-02T06:40:27;10.10;99.90
64062;DHT22;50308;47.438;-1.528;2024-03-02T06:42:53;10.10;99.90
64062;DHT22;50308;47.438;-1.528;2024-03-02T06:45:18;10.10;99.90
64062;DHT22;50308;47.438;-1.528;2024-03-02T06:47:44;10.20;99.90
64062;DHT22;50308;47.438;-1.528;2024-03-02T06:50:09;10.20;99.90
64062;DHT22;50308;47.438;-1.528;2024-03-02T06:52:35;10.20;99.90
64062;DHT22;50308;47.438;-1.528;2024-03-02T06:55:02;10.10;99.90
64062;DHT22;50308;47.438;-1.528;2024-03-02T06:57:27;10.10;99.90
64062;DHT22;50308;47.438;-1.528;2024-03-02T06:59:53;10.10;99.90
64062;DHT22;50308;47.438;-1.528;2024-03-02T07:02:22;10.10;99.90
64062;DHT22;50308;47.438;-1.528;2024-03-02T07:04:48;10.10;99.90
64062;DHT22;50308;47.438;-1.528;2024-03-02T07:07:14;10.10;99.90
64062;DHT22;50308;47.438;-1.528;2024-03-02T07:09:39;10.10;99.90
64062;DHT22;50308;47.438;-1.528;2024-03-02T07:12:05;10.10;99.90
64062;DHT22;50308;47.438;-1.528;2024-03-02T07:14:31;10.10;99.90
64062;DHT22;50308;47.438;-1.528;2024-03-02T07:17:15;10.20;99.90
64062;DHT22;50308;47.438;-1.528;2024-03-02T07:19:40;10.20;99.90
64062;DHT22;50308;47.438;-1.528;2024-03-02T07:22:07;10.20;99.90
64062;DHT22;50308;47.438;-1.528;2024-03-02T07:24:42;10.30;99.90
64062;DHT22;50308;47.438;-1.528;2024-03-02T07:27:11;10.30;99.90
64062;DHT22;50308;47.438;-1.528;2024-03-02T07:29:38;10.20;99.90
64062;DHT22;50308;47.438;-1.528;2024-03-02T07:32:04;10.20;99.90
64062;DHT22;50308;47.438;-1.528;2024-03-02T07:34:30;10.20;99.90
64062;DHT22;50308;47.438;-1.528;2024-03-02T07:36:56;10.20;99.90
64062;DHT22;50308;47.438;-1.528;2024-03-02T07:39:22;10.20;99.90
64062;DHT22;50308;47.438;-1.528;2024-03-02T07:41:47;10.20;99.90
64062;DHT22;50308;47.438;-1.528;2024-03-02T07:44:14;10.20;99.90
64062;DHT22;50308;47.438;-1.528;2024-03-02T07:46:43;10.20;99.90
64062;DHT22;50308;47.438;-1.528;2024-03-02T07:49:09;10.20;99.90
64062;DHT22;50308;47.438;-1.528;2024-03-02T07:51:35;10.30;99.90
64062;DHT22;50308;47.438;-1.528;2024-03-02T07:54:01;10.20;99.90
64062;DHT22;50308;47.438;-1.528;2024-03-02T07:56:27;10.20;99.90
64062;DHT22;50308;47.438;-1.528;2024-03-02T07:58:54;10.30;99.90
64062;DHT22;50308;47.438;-1.528;2024-03-02T08:01:20;10.30;99.90
64062;DHT22;50308;47.438;-1.528;2024-03-02T08:03:45;10.30;99.90
64062;DHT22;50308;47.438;-1.528;2024-03-02T08:06:16;10.30;99.90
64062;DHT22;50308;47.438;-1.528;2024-03-02T08:08:42;10.30;99.90
64062;DHT22;50308;47.438;-1.528;2024-03-02T08:11:07;10.30;99.90
64062;DHT22;50308;47.438;-1.528;2024-03-02T08:13:33;10.30;99.90
64062;DHT22;50308;47.438;-1.528;2024-03-02T08:15:58;10.30;99.90
64062;DHT22;50308;47.438;-1.528;2024-03-02T08:18:24;10.30;99.90
64062;DHT22;50308;47.438;-1.528;2024-03-02T08:20:50;10.30;99.90
64062;DHT22;50308;47.438;-1.528;2024-03-02T08:23:16;10.30;99.90
64062;DHT22;50308;47.438;-1.528;2024-03-02T08:25:42;10.30;99.90
64062;DHT22;50308;47.438;-1.528;2024-03-02T08:28:08;10.30;99.90
64062;DHT22;50308;47.438;-1.528;2024-03-02T08:30:33;10.40;99.90
64062;DHT22;50308;47.438;-1.528;2024-03-02T08:32:59;10.40;99.90
64062;DHT22;50308;47.438;-1.528;2024-03-02T08:35:25;10.40;99.90
64062;DHT22;50308;47.438;-1.528;2024-03-02T08:37:51;10.40;99.90
64062;DHT22;50308;47.438;-1.528;2024-03-02T08:40:17;10.40;99.90
64062;DHT22;50308;47.438;-1.528;2024-03-02T08:42:42;10.40;99.90
64062;DHT22;50308;47.438;-1.528;2024-03-02T08:45:08;10.40;99.90
64062;DHT22;50308;47.438;-1.528;2024-03-02T08:47:34;10.40;99.90
64062;DHT22;50308;47.438;-1.528;2024-03-02T08:50:00;10.40;99.90
64062;DHT22;50308;47.438;-1.528;2024-03-02T08:52:26;10.50;99.90
64062;DHT22;50308;47.438;-1.528;2024-03-02T08:54:52;10.50;99.90
64062;DHT22;50308;47.438;-1.528;2024-03-02T08:57:18;10.50;99.90
64062;DHT22;50308;47.438;-1.528;2024-03-02T08:59:44;10.50;99.90
64062;DHT22;50308;47.438;-1.528;2024-03-02T09:02:10;10.50;99.90
64062;DHT22;50308;47.438;-1.528;2024-03-02T09:04:36;10.50;99.90
64062;DHT22;50308;47.438;-1.528;2024-03-02T09:07:01;10.50;99.90
64062;DHT22;50308;47.438;-1.528;2024-03-02T09:09:27;10.50;99.90
64062;DHT22;50308;47.438;-1.528;2024-03-02T09:11:53;10.50;99.90
64062;DHT22;50308;47.438;-1.528;2024-03-02T09:14:23;10.50;99.90
64062;DHT22;50308;47.438;-1.528;2024-03-02T09:16:49;10.60;99.90
64062;DHT22;50308;47.438;-1.528;2024-03-02T09:19:14;10.60;99.90
64062;DHT22;50308;47.438;-1.528;2024-03-02T09:21:42;10.60;99.90
64062;DHT22;50308;47.438;-1.528;2024-03-02T09:24:07;10.60;99.90
64062;DHT22;50308;47.438;-1.528;2024-03-02T09:26:33;10.60;99.90
64062;DHT22;50308;47.438;-1.528;2024-03-02T09:28:59;10.60;99.90
64062;DHT22;50308;47.438;-1.528;2024-03-02T09:31:24;10.60;99.90
64062;DHT22;50308;47.438;-1.528;2024-03-02T09:33:50;10.60;99.90
64062;DHT22;50308;47.438;-1.528;2024-03-02T09:36:19;10.60;99.90
64062;DHT22;50308;47.438;-1.528;2024-03-02T09:38:45;10.60;99.90
64062;DHT22;50308;47.438;-1.528;2024-03-02T09:41:12;10.60;99.90
64062;DHT22;50308;47.438;-1.528;2024-03-02T09:43:38;10.60;99.90
64062;DHT22;50308;47.438;-1.528;2024-03-02T09:46:04;10.60;99.90
64062;DHT22;50308;47.438;-1.528;2024-03-02T09:48:30;10.60;99.90
64062;DHT22;50308;47.438;-1.528;2024-03-02T09:50:56;10.60;99.90
64062;DHT22;50308;47.438;-1.528;2024-03-02T09:53:22;10.60;99.90
64062;DHT22;50308;47.438;-1.528;2024-03-02T09:55:48;10.70;99.90
64062;DHT22;50308;47.438;-1.528;2024-03-02T09:58:14;10.70;99.90
64062;DHT22;50308;47.438;-1.528;2024-03-02T10:00:39;10.70;99.90
64062;DHT22;50308;47.438;-1.528;2024-03-02T10:03:05;10.70;99.90
64062;DHT22;50308;47.438;-1.528;2024-03-02T10:05:36;10.70;99.90
64062;DHT22;50308;47.438;-1.528;2024-03-02T10:08:02;10.70;99.90
64062;DHT22;50308;47.438;-1.528;2024-03-02T10:10:39;10.70;99.90
64062;DHT22;50308;47.438;-1.528;2024-03-02T10:13:09;10.70;99.90
64062;DHT22;50308;47.438;-1.528;2024-03-02T10:15:36;10.70;99.90
64062;DHT22;50308;47.438;-1.528;2024-03-02T10:18:12;10.70;99.90
64062;DHT22;50308;47.438;-1.528;2024-03-02T10:20:39;10.70;99.90
64062;DHT22;50308;47.438;-1.528;2024-03-02T10:25:37;10.80;99.90
64062;DHT22;50308;47.438;-1.528;2024-03-02T10:28:02;10.80;99.90
64062;DHT22;50308;47.438;-1.528;2024-03-02T10:30:31;10.80;99.90
64062;DHT22;50308;47.438;-1.528;2024-03-02T10:32:57;10.80;99.90
64062;DHT22;50308;47.438;-1.528;2024-03-02T10:35:23;10.80;99.90
64062;DHT22;50308;47.438;-1.528;2024-03-02T10:37:49;10.80;99.90
64062;DHT22;50308;47.438;-1.528;2024-03-02T10:40:16;10.80;99.90
64062;DHT22;50308;47.438;-1.528;2024-03-02T10:42:42;10.80;99.90
64062;DHT22;50308;47.438;-1.528;2024-03-02T10:45:10;10.80;99.90
64062;DHT22;50308;47.438;-1.528;2024-03-02T10:47:38;10.80;99.90
64062;DHT22;50308;47.438;-1.528;2024-03-02T10:50:05;10.80;99.90
64062;DHT22;50308;47.438;-1.528;2024-03-02T10:52:43;10.80;99.90
64062;DHT22;50308;47.438;-1.528;2024-03-02T10:55:11;10.80;99.90
64062;DHT22;50308;47.438;-1.528;2024-03-02T10:57:58;10.90;99.90
64062;DHT22;50308;47.438;-1.528;2024-03-02T11:00:32;10.90;99.90
64062;DHT22;50308;47.438;-1.528;2024-03-02T11:03:05;10.90;99.90
64062;DHT22;50308;47.438;-1.528;2024-03-02T11:05:39;10.90;99.90
64062;DHT22;50308;47.438;-1.528;2024-03-02T11:08:13;10.90;99.90
64062;DHT22;50308;47.438;-1.528;2024-03-02T11:10:48;10.90;99.90
64062;DHT22;50308;47.438;-1.528;2024-03-02T11:13:17;10.90;99.90
64062;DHT22;50308;47.438;-1.528;2024-03-02T11:15:46;10.90;99.90
64062;DHT22;50308;47.438;-1.528;2024-03-02T11:18:12;10.90;99.90
64062;DHT22;50308;47.438;-1.528;2024-03-02T11:20:40;10.90;99.90
64062;DHT22;50308;47.438;-1.528;2024-03-02T11:23:07;10.90;99.90
64062;DHT22;50308;47.438;-1.528;2024-03-02T11:25:33;10.90;99.90
64062;DHT22;50308;47.438;-1.528;2024-03-02T11:28:00;10.90;99.90
64062;DHT22;50308;47.438;-1.528;2024-03-02T11:33:07;10.90;99.90
64062;DHT22;50308;47.438;-1.528;2024-03-02T11:35:37;10.90;99.90
64062;DHT22;50308;47.438;-1.528;2024-03-02T11:38:03;10.90;99.90
64062;DHT22;50308;47.438;-1.528;2024-03-02T11:40:30;10.90;99.90
64062;DHT22;50308;47.438;-1.528;2024-03-02T11:42:56;10.90;99.90
64062;DHT22;50308;47.438;-1.528;2024-03-02T11:45:26;10.90;99.90
64062;DHT22;50308;47.438;-1.528;2024-03-02T11:47:54;10.90;99.90
64062;DHT22;50308;47.438;-1.528;2024-03-02T11:50:31;10.90;99.90
64062;DHT22;50308;47.438;-1.528;2024-03-02T11:52:58;10.90;99.90
64062;DHT22;50308;47.438;-1.528;2024-03-02T11:55:26;10.90;99.90
64062;DHT22;50308;47.438;-1.528;2024-03-02T11:57:55;10.90;99.90
64062;DHT22;50308;47.438;-1.528;2024-03-02T12:00:21;10.90;99.90
64062;DHT22;50308;47.438;-1.528;2024-03-02T12:03:00;10.90;99.90
64062;DHT22;50308;47.438;-1.528;2024-03-02T12:05:27;10.90;99.90
64062;DHT22;50308;47.438;-1.528;2024-03-02T12:08:00;10.90;99.90
64062;DHT22;50308;47.438;-1.528;2024-03-02T12:10:26;10.90;99.90
64062;DHT22;50308;47.438;-1.528;2024-03-02T12:13:18;10.90;99.90
64062;DHT22;50308;47.438;-1.528;2024-03-02T12:15:44;10.90;99.90
64062;DHT22;50308;47.438;-1.528;2024-03-02T12:18:10;10.90;99.90
64062;DHT22;50308;47.438;-1.528;2024-03-02T12:20:35;10.90;99.90
64062;DHT22;50308;47.438;-1.528;2024-03-02T12:23:04;10.90;99.90
64062;DHT22;50308;47.438;-1.528;2024-03-02T12:25:31;10.90;99.90
64062;DHT22;50308;47.438;-1.528;2024-03-02T12:27:59;10.90;99.90
64062;DHT22;50308;47.438;-1.528;2024-03-02T12:30:27;10.90;99.90
64062;DHT22;50308;47.438;-1.528;2024-03-02T12:32:55;10.90;99.90
64062;DHT22;50308;47.438;-1.528;2024-03-02T12:35:20;10.90;99.90
64062;DHT22;50308;47.438;-1.528;2024-03-02T12:37:50;10.90;99.90
64062;DHT22;50308;47.438;-1.528;2024-03-02T12:40:17;10.90;99.90
64062;DHT22;50308;47.438;-1.528;2024-03-02T12:42:44;10.90;99.90
64062;DHT22;50308;47.438;-1.528;2024-03-02T12:45:11;10.90;99.90
64062;DHT22;50308;47.438;-1.528;2024-03-02T12:47:37;10.90;99.90
64062;DHT22;50308;47.438;-1.528;2024-03-02T12:50:04;10.90;99.90
64062;DHT22;50308;47.438;-1.528;2024-03-02T12:52:31;10.90;99.90
64062;DHT22;50308;47.438;-1.528;2024-03-02T12:55:06;10.90;99.90
64062;DHT22;50308;47.438;-1.528;2024-03-02T12:57:33;10.90;99.90
64062;DHT22;50308;47.438;-1.528;2024-03-02T13:00:03;11.00;99.90
64062;DHT22;50308;47.438;-1.528;2024-03-02T13:02:35;10.90;99.90
64062;DHT22;50308;47.438;-1.528;2024-03-02T13:05:02;11.00;99.90
64062;DHT22;50308;47.438;-1.528;2024-03-02T13:07:29;11.00;99.90
64062;DHT22;50308;47.438;-1.528;2024-03-02T13:09:56;11.00;99.90
64062;DHT22;50308;47.438;-1.528;2024-03-02T13:12:23;11.00;99.90
64062;DHT22;50308;47.438;-1.528;2024-03-02T13:14:53;11.00;99.90
64062;DHT22;50308;47.438;-1.528;2024-03-02T13:17:19;11.00;99.90
64062;DHT22;50308;47.438;-1.528;2024-03-02T13:19:59;11.00;99.90
64062;DHT22;50308;47.438;-1.528;2024-03-02T13:22:27;11.00;99.90
64062;DHT22;50308;47.438;-1.528;2024-03-02T13:24:53;11.00;99.90
64062;DHT22;50308;47.438;-1.528;2024-03-02T13:27:23;11.00;99.90
64062;DHT22;50308;47.438;-1.528;2024-03-02T13:29:49;11.00;99.90
64062;DHT22;50308;47.438;-1.528;2024-03-02T13:32:15;11.00;99.90
64062;DHT22;50308;47.438;-1.528;2024-03-02T13:34:41;11.00;99.90
64062;DHT22;50308;47.438;-1.528;2024-03-02T13:37:07;11.00;99.90
64062;DHT22;50308;47.438;-1.528;2024-03-02T13:39:33;11.00;99.90
64062;DHT22;50308;47.438;-1.528;2024-03-02T13:42:06;11.10;99.90
64062;DHT22;50308;47.438;-1.528;2024-03-02T13:44:33;11.10;99.90
64062;DHT22;50308;47.438;-1.528;2024-03-02T13:47:00;11.10;99.90
64062;DHT22;50308;47.438;-1.528;2024-03-02T13:49:26;11.10;99.90
64062;DHT22;50308;47.438;-1.528;2024-03-02T13:52:00;11.10;99.90
64062;DHT22;50308;47.438;-1.528;2024-03-02T13:54:26;11.10;99.90
64062;DHT22;50308;47.438;-1.528;2024-03-02T13:56:52;11.10;99.90
64062;DHT22;50308;47.438;-1.528;2024-03-02T13:59:18;11.10;99.90
64062;DHT22;50308;47.438;-1.528;2024-03-02T14:01:44;11.10;99.90
64062;DHT22;50308;47.438;-1.528;2024-03-02T14:04:10;11.10;99.90
64062;DHT22;50308;47.438;-1.528;2024-03-02T14:06:36;11.10;99.90
64062;DHT22;50308;47.438;-1.528;2024-03-02T14:09:01;11.10;99.90
64062;DHT22;50308;47.438;-1.528;2024-03-02T14:11:27;11.10;99.90
64062;DHT22;50308;47.438;-1.528;2024-03-02T14:13:53;11.10;99.90
64062;DHT22;50308;47.438;-1.528;2024-03-02T14:16:20;11.10;99.90
64062;DHT22;50308;47.438;-1.528;2024-03-02T14:18:46;11.10;99.90
64062;DHT22;50308;47.438;-1.528;2024-03-02T14:21:12;11.10;99.90
64062;DHT22;50308;47.438;-1.528;2024-03-02T14:23:37;11.10;99.90
64062;DHT22;50308;47.438;-1.528;2024-03-02T14:26:03;11.10;99.90
64062;DHT22;50308;47.438;-1.528;2024-03-02T14:28:29;11.10;99.90
64062;DHT22;50308;47.438;-1.528;2024-03-02T14:30:54;11.10;99.90
64062;DHT22;50308;47.438;-1.528;2024-03-02T14:33:20;11.10;99.90
64062;DHT22;50308;47.438;-1.528;2024-03-02T14:35:46;11.10;99.90
64062;DHT22;50308;47.438;-1.528;2024-03-02T14:38:12;11.10;99.90
64062;DHT22;50308;47.438;-1.528;2024-03-02T14:40:38;11.10;99.90
64062;DHT22;50308;47.438;-1.528;2024-03-02T14:43:04;11.10;99.90
64062;DHT22;50308;47.438;-1.528;2024-03-02T14:45:29;11.10;99.90
64062;DHT22;50308;47.438;-1.528;2024-03-02T14:47:56;11.10;99.90
64062;DHT22;50308;47.438;-1.528;2024-03-02T14:50:28;11.10;99.90
64062;DHT22;50308;47.438;-1.528;2024-03-02T14:52:53;11.10;99.90
64062;DHT22;50308;47.438;-1.528;2024-03-02T14:55:19;11.10;99.90
64062;DHT22;50308;47.438;-1.528;2024-03-02T14:57:45;11.10;99.90
64062;DHT22;50308;47.438;-1.528;2024-03-02T15:00:11;11.20;99.90
64062;DHT22;50308;47.438;-1.528;2024-03-02T15:02:40;11.20;99.90
64062;DHT22;50308;47.438;-1.528;2024-03-02T15:05:05;11.20;99.90
64062;DHT22;50308;47.438;-1.528;2024-03-02T15:07:32;11.20;99.90
64062;DHT22;50308;47.438;-1.528;2024-03-02T15:09:57;11.20;99.90
64062;DHT22;50308;47.438;-1.528;2024-03-02T15:12:23;11.20;99.90
64062;DHT22;50308;47.438;-1.528;2024-03-02T15:14:49;11.20;99.90
64062;DHT22;50308;47.438;-1.528;2024-03-02T15:17:15;11.20;99.90
64062;DHT22;50308;47.438;-1.528;2024-03-02T15:19:45;11.20;99.90
64062;DHT22;50308;47.438;-1.528;2024-03-02T15:22:11;11.20;99.90